sensor_id;sensor_type;location;lat;lon;timestamp;pressure;altitude;pressure_sealevel;temperature;humidity
47522;BME280;32291;52.010;4.446;2023-05-07T00:00:12;78227.59;;;-144.67;100.00
47522;BME280;32291;52.010;4.446;2023-05-07T00:01:16;78216.88;;;-144.67;100.00
47522;BME280;32291;52.010;4.446;2023-05-07T00:02:18;78223.31;;;-144.67;100.00
47522;BME280;32291;52.010;4.446;2023-05-07T00:03:19;78223.31;;;-144.67;100.00
47522;BME280;32291;52.010;4.446;2023-05-07T00:04:21;78229.72;;;-144.67;100.00
47522;BME280;32291;52.010;4.446;2023-05-07T00:05:24;78240.44;;;-144.67;100.00
47522;BME280;32291;52.010;4.446;2023-05-07T00:06:26;78240.44;;;-144.67;100.00
47522;BME280;32291;52.010;4.446;2023-05-07T00:07:30;78238.28;;;-144.67;100.00
47522;BME280;32291;52.010;4.446;2023-05-07T00:08:32;78249.00;;;-144.67;100.00
47522;BME280;32291;52.010;4.446;2023-05-07T00:09:34;78249.00;;;-144.67;100.00
47522;BME280;32291;52.010;4.446;2023-05-07T00:10:36;78249.00;;;-144.67;100.00
47522;BME280;32291;52.010;4.446;2023-05-07T00:11:38;78253.28;;;-144.67;100.00
47522;BME280;32291;52.010;4.446;2023-05-07T00:12:41;78249.00;;;-144.67;100.00
47522;BME280;32291;52.010;4.446;2023-05-07T00:13:42;78253.28;;;-144.67;100.00
47522;BME280;32291;52.010;4.446;2023-05-07T00:14:44;78246.84;;;-144.67;100.00
47522;BME280;32291;52.010;4.446;2023-05-07T00:15:46;78251.13;;;-144.67;100.00
47522;BME280;32291;52.010;4.446;2023-05-07T00:16:48;78257.56;;;-144.67;100.00
47522;BME280;32291;52.010;4.446;2023-05-07T00:17:50;78255.41;;;-144.67;100.00
47522;BME280;32291;52.010;4.446;2023-05-07T00:18:52;78255.41;;;-144.67;100.00
47522;BME280;32291;52.010;4.446;2023-05-07T00:19:54;78259.69;;;-144.67;100.00
47522;BME280;32291;52.010;4.446;2023-05-07T00:20:55;78266.13;;;-144.67;100.00
47522;BME280;32291;52.010;4.446;2023-05-07T00:21:57;78266.13;;;-144.67;100.00
47522;BME280;32291;52.010;4.446;2023-05-07T00:22:59;78261.84;;;-144.67;100.00
47522;BME280;32291;52.010;4.446;2023-05-07T00:24:01;78268.25;;;-144.67;100.00
47522;BME280;32291;52.010;4.446;2023-05-07T00:25:04;78270.41;;;-144.67;100.00
47522;BME280;32291;52.010;4.446;2023-05-07T00:26:06;78257.56;;;-144.67;100.00
47522;BME280;32291;52.010;4.446;2023-05-07T00:27:08;78266.13;;;-144.67;100.00
47522;BME280;32291;52.010;4.446;2023-05-07T00:28:10;78257.56;;;-144.67;100.00
47522;BME280;32291;52.010;4.446;2023-05-07T00:29:12;78263.97;;;-144.67;100.00
47522;BME280;32291;52.010;4.446;2023-05-07T00:30:13;78257.56;;;-144.67;100.00
47522;BME280;32291;52.010;4.446;2023-05-07T00:31:15;78261.84;;;-144.67;100.00
47522;BME280;32291;52.010;4.446;2023-05-07T00:32:17;78263.97;;;-144.67;100.00
47522;BME280;32291;52.010;4.446;2023-05-07T00:33:18;78261.84;;;-144.67;100.00
47522;BME280;32291;52.010;4.446;2023-05-07T00:34:22;78266.13;;;-144.67;100.00
47522;BME280;32291;52.010;4.446;2023-05-07T00:35:24;78261.84;;;-144.67;100.00
47522;BME280;32291;52.010;4.446;2023-05-07T00:36:25;78261.84;;;-144.67;100.00
47522;BME280;32291;52.010;4.446;2023-05-07T00:37:27;78263.97;;;-144.67;100.00
47522;BME280;32291;52.010;4.446;2023-05-07T00:38:29;78261.84;;;-144.67;100.00
47522;BME280;32291;52.010;4.446;2023-05-07T00:39:30;78270.41;;;-144.67;100.00
47522;BME280;32291;52.010;4.446;2023-05-07T00:40:32;78270.41;;;-144.67;100.00
47522;BME280;32291;52.010;4.446;2023-05-07T00:41:33;78270.41;;;-144.67;100.00
47522;BME280;32291;52.010;4.446;2023-05-07T00:42:36;78266.13;;;-144.67;100.00
47522;BME280;32291;52.010;4.446;2023-05-07T00:43:38;78266.13;;;-144.67;100.00
47522;BME280;32291;52.010;4.446;2023-05-07T00:44:39;78270.41;;;-144.67;100.00
47522;BME280;32291;52.010;4.446;2023-05-07T00:45:41;78266.13;;;-144.67;100.00
47522;BME280;32291;52.010;4.446;2023-05-07T00:46:43;78270.41;;;-144.67;100.00
47522;BME280;32291;52.010;4.446;2023-05-07T00:47:46;78261.84;;;-144.67;100.00
47522;BME280;32291;52.010;4.446;2023-05-07T00:48:49;78268.25;;;-144.67;100.00
47522;BME280;32291;52.010;4.446;2023-05-07T00:49:52;78266.13;;;-144.67;100.00
47522;BME280;32291;52.010;4.446;2023-05-07T00:50:54;78266.13;;;-144.67;100.00
47522;BME280;32291;52.010;4.446;2023-05-07T00:51:56;78266.13;;;-144.67;100.00
47522;BME280;32291;52.010;4.446;2023-05-07T00:52:59;78270.41;;;-144.67;100.00
47522;BME280;32291;52.010;4.446;2023-05-07T00:54:03;78274.69;;;-144.67;100.00
47522;BME280;32291;52.010;4.446;2023-05-07T00:55:07;78274.69;;;-144.67;100.00
47522;BME280;32291;52.010;4.446;2023-05-07T00:56:09;78270.41;;;-144.67;100.00
47522;BME280;32291;52.010;4.446;2023-05-07T00:57:11;78263.97;;;-144.67;100.00
47522;BME280;32291;52.010;4.446;2023-05-07T00:58:13;78270.41;;;-144.67;100.00
47522;BME280;32291;52.010;4.446;2023-05-07T00:59:15;78263.97;;;-144.67;100.00
47522;BME280;32291;52.010;4.446;2023-05-07T01:00:17;78270.41;;;-144.67;100.00
47522;BME280;32291;52.010;4.446;2023-05-07T01:01:19;78270.41;;;-144.67;100.00
47522;BME280;32291;52.010;4.446;2023-05-07T01:02:21;78276.81;;;-144.67;100.00
47522;BME280;32291;52.010;4.446;2023-05-07T01:03:23;78278.97;;;-144.67;100.00
47522;BME280;32291;52.010;4.446;2023-05-07T01:04:26;78283.25;;;-144.67;100.00
47522;BME280;32291;52.010;4.446;2023-05-07T01:05:29;78287.53;;;-144.67;100.00
47522;BME280;32291;52.010;4.446;2023-05-07T01:06:32;78287.53;;;-144.67;100.00
47522;BME280;32291;52.010;4.446;2023-05-07T01:07:37;78285.38;;;-144.67;100.00
47522;BME280;32291;52.010;4.446;2023-05-07T01:08:41;78285.38;;;-144.67;100.00
47522;BME280;32291;52.010;4.446;2023-05-07T01:09:43;78283.25;;;-144.67;100.00
47522;BME280;32291;52.010;4.446;2023-05-07T01:10:46;78283.25;;;-144.67;100.00
47522;BME280;32291;52.010;4.446;2023-05-07T01:11:49;78283.25;;;-144.67;100.00
47522;BME280;32291;52.010;4.446;2023-05-07T01:12:53;78278.97;;;-144.67;100.00
47522;BME280;32291;52.010;4.446;2023-05-07T01:13:56;78283.25;;;-144.67;100.00
47522;BME280;32291;52.010;4.446;2023-05-07T01:15:00;78283.25;;;-144.67;100.00
47522;BME280;32291;52.010;4.446;2023-05-07T01:16:03;78287.53;;;-144.67;100.00
47522;BME280;32291;52.010;4.446;2023-05-07T01:17:05;78274.69;;;-144.67;100.00
47522;BME280;32291;52.010;4.446;2023-05-07T01:18:08;78274.69;;;-144.67;100.00
47522;BME280;32291;52.010;4.446;2023-05-07T01:19:11;78281.09;;;-144.67;100.00
47522;BME280;32291;52.010;4.446;2023-05-07T01:20:18;78272.53;;;-144.67;100.00
47522;BME280;32291;52.010;4.446;2023-05-07T01:21:26;78263.97;;;-144.67;100.00
47522;BME280;32291;52.010;4.446;2023-05-07T01:22:32;78266.13;;;-144.67;100.00
47522;BME280;32291;52.010;4.446;2023-05-07T01:23:35;78268.25;;;-144.67;100.00
47522;BME280;32291;52.010;4.446;2023-05-07T01:24:38;78263.97;;;-144.67;100.00
47522;BME280;32291;52.010;4.446;2023-05-07T01:25:39;78274.69;;;-144.67;100.00
47522;BME280;32291;52.010;4.446;2023-05-07T01:26:43;78272.53;;;-144.67;100.00
47522;BME280;32291;52.010;4.446;2023-05-07T01:27:45;78274.69;;;-144.67;100.00
47522;BME280;32291;52.010;4.446;2023-05-07T01:28:47;78274.69;;;-144.67;100.00
47522;BME280;32291;52.010;4.446;2023-05-07T01:29:48;78274.69;;;-144.67;100.00
47522;BME280;32291;52.010;4.446;2023-05-07T01:30:57;78278.97;;;-144.67;100.00
47522;BME280;32291;52.010;4.446;2023-05-07T01:32:02;78281.09;;;-144.67;100.00
47522;BME280;32291;52.010;4.446;2023-05-07T01:33:11;78287.53;;;-144.67;100.00
47522;BME280;32291;52.010;4.446;2023-05-07T01:34:17;78287.53;;;-144.67;100.00
47522;BME280;32291;52.010;4.446;2023-05-07T01:35:25;78278.97;;;-144.67;100.00
47522;BME280;32291;52.010;4.446;2023-05-07T01:36:29;78283.25;;;-144.67;100.00
47522;BME280;32291;52.010;4.446;2023-05-07T01:37:32;78278.97;;;-144.67;100.00
47522;BME280;32291;52.010;4.446;2023-05-07T01:38:36;78278.97;;;-144.67;100.00
47522;BME280;32291;52.010;4.446;2023-05-07T01:39:40;78283.25;;;-144.67;100.00
47522;BME280;32291;52.010;4.446;2023-05-07T01:40:43;78276.81;;;-144.67;100.00
47522;BME280;32291;52.010;4.446;2023-05-07T01:41:46;78278.97;;;-144.67;100.00
47522;BME280;32291;52.010;4.446;2023-05-07T01:42:48;78270.41;;;-144.67;100.00
47522;BME280;32291;52.010;4.446;2023-05-07T01:43:51;78272.53;;;-144.67;100.00
47522;BME280;32291;52.010;4.446;2023-05-07T01:44:53;78270.41;;;-144.67;100.00
47522;BME280;32291;52.010;4.446;2023-05-07T01:45:56;78270.41;;;-144.67;100.00
47522;BME280;32291;52.010;4.446;2023-05-07T01:46:59;78270.41;;;-144.67;100.00
47522;BME280;32291;52.010;4.446;2023-05-07T01:48:03;78270.41;;;-144.67;100.00
47522;BME280;32291;52.010;4.446;2023-05-07T01:49:05;78268.25;;;-144.67;100.00
47522;BME280;32291;52.010;4.446;2023-05-07T01:50:07;78270.41;;;-144.67;100.00
47522;BME280;32291;52.010;4.446;2023-05-07T01:51:10;78266.13;;;-144.67;100.00
47522;BME280;32291;52.010;4.446;2023-05-07T01:52:13;78261.84;;;-144.67;100.00
47522;BME280;32291;52.010;4.446;2023-05-07T01:53:15;78259.69;;;-144.67;100.00
47522;BME280;32291;52.010;4.446;2023-05-07T01:54:17;78257.56;;;-144.67;100.00
47522;BME280;32291;52.010;4.446;2023-05-07T01:55:19;78266.13;;;-144.67;100.00
47522;BME280;32291;52.010;4.446;2023-05-07T01:56:21;78261.84;;;-144.67;100.00
47522;BME280;32291;52.010;4.446;2023-05-07T01:57:22;78261.84;;;-144.67;100.00
47522;BME280;32291;52.010;4.446;2023-05-07T01:58:24;78261.84;;;-144.67;100.00
47522;BME280;32291;52.010;4.446;2023-05-07T01:59:26;78259.69;;;-144.67;100.00
47522;BME280;32291;52.010;4.446;2023-05-07T02:00:27;78261.84;;;-144.67;100.00
47522;BME280;32291;52.010;4.446;2023-05-07T02:01:30;78253.28;;;-144.67;100.00
47522;BME280;32291;52.010;4.446;2023-05-07T02:02:32;78253.28;;;-144.67;100.00
47522;BME280;32291;52.010;4.446;2023-05-07T02:03:34;78253.28;;;-144.67;100.00
47522;BME280;32291;52.010;4.446;2023-05-07T02:04:36;78253.28;;;-144.67;100.00
47522;BME280;32291;52.010;4.446;2023-05-07T02:05:37;78251.13;;;-144.67;100.00
47522;BME280;32291;52.010;4.446;2023-05-07T02:06:39;78251.13;;;-144.67;100.00
47522;BME280;32291;52.010;4.446;2023-05-07T02:07:41;78244.72;;;-144.67;100.00
47522;BME280;32291;52.010;4.446;2023-05-07T02:08:43;78251.13;;;-144.67;100.00
47522;BME280;32291;52.010;4.446;2023-05-07T02:09:45;78251.13;;;-144.67;100.00
47522;BME280;32291;52.010;4.446;2023-05-07T02:10:47;78253.28;;;-144.67;100.00
47522;BME280;32291;52.010;4.446;2023-05-07T02:11:48;78251.13;;;-144.67;100.00
47522;BME280;32291;52.010;4.446;2023-05-07T02:12:50;78246.84;;;-144.67;100.00
47522;BME280;32291;52.010;4.446;2023-05-07T02:13:52;78253.28;;;-144.67;100.00
47522;BME280;32291;52.010;4.446;2023-05-07T02:14:54;78253.28;;;-144.67;100.00
47522;BME280;32291;52.010;4.446;2023-05-07T02:15:57;78251.13;;;-144.67;100.00
47522;BME280;32291;52.010;4.446;2023-05-07T02:16:59;78255.41;;;-144.67;100.00
47522;BME280;32291;52.010;4.446;2023-05-07T02:18:06;78253.28;;;-144.67;100.00
47522;BME280;32291;52.010;4.446;2023-05-07T02:19:08;78261.84;;;-144.67;100.00
47522;BME280;32291;52.010;4.446;2023-05-07T02:20:09;78261.84;;;-144.67;100.00
47522;BME280;32291;52.010;4.446;2023-05-07T02:21:14;78263.97;;;-144.67;100.00
47522;BME280;32291;52.010;4.446;2023-05-07T02:22:16;78259.69;;;-144.67;100.00
47522;BME280;32291;52.010;4.446;2023-05-07T02:23:18;78257.56;;;-144.67;100.00
47522;BME280;32291;52.010;4.446;2023-05-07T02:24:20;78259.69;;;-144.67;100.00
47522;BME280;32291;52.010;4.446;2023-05-07T02:25:22;78268.25;;;-144.67;100.00
47522;BME280;32291;52.010;4.446;2023-05-07T02:26:24;78266.13;;;-144.67;100.00
47522;BME280;32291;52.010;4.446;2023-05-07T02:27:27;78274.69;;;-144.67;100.00
47522;BME280;32291;52.010;4.446;2023-05-07T02:28:29;78272.53;;;-144.67;100.00
47522;BME280;32291;52.010;4.446;2023-05-07T02:29:31;78272.53;;;-144.67;100.00
47522;BME280;32291;52.010;4.446;2023-05-07T02:30:33;78272.53;;;-144.67;100.00
47522;BME280;32291;52.010;4.446;2023-05-07T02:31:35;78274.69;;;-144.67;100.00
47522;BME280;32291;52.010;4.446;2023-05-07T02:32:36;78278.97;;;-144.67;100.00
47522;BME280;32291;52.010;4.446;2023-05-07T02:33:38;78270.41;;;-144.67;100.00
47522;BME280;32291;52.010;4.446;2023-05-07T02:34:39;78274.69;;;-144.67;100.00
47522;BME280;32291;52.010;4.446;2023-05-07T02:35:41;78270.41;;;-144.67;100.00
47522;BME280;32291;52.010;4.446;2023-05-07T02:36:43;78274.69;;;-144.67;100.00
47522;BME280;32291;52.010;4.446;2023-05-07T02:37:45;78270.41;;;-144.67;100.00
47522;BME280;32291;52.010;4.446;2023-05-07T02:38:47;78270.41;;;-144.67;100.00
47522;BME280;32291;52.010;4.446;2023-05-07T02:39:49;78261.84;;;-144.67;100.00
47522;BME280;32291;52.010;4.446;2023-05-07T02:40:50;78261.84;;;-144.67;100.00
47522;BME280;32291;52.010;4.446;2023-05-07T02:41:52;78263.97;;;-144.67;100.00
47522;BME280;32291;52.010;4.446;2023-05-07T02:42:54;78261.84;;;-144.67;100.00
47522;BME280;32291;52.010;4.446;2023-05-07T02:43:55;78261.84;;;-144.67;100.00
47522;BME280;32291;52.010;4.446;2023-05-07T02:44:57;78261.84;;;-144.67;100.00
47522;BME280;32291;52.010;4.446;2023-05-07T02:46:08;78253.28;;;-144.67;100.00
47522;BME280;32291;52.010;4.446;2023-05-07T02:47:10;78253.28;;;-144.67;100.00
47522;BME280;32291;52.010;4.446;2023-05-07T02:48:11;78249.00;;;-144.67;100.00
47522;BME280;32291;52.010;4.446;2023-05-07T02:49:13;78231.88;;;-144.67;100.00
47522;BME280;32291;52.010;4.446;2023-05-07T02:50:15;78227.59;;;-144.67;100.00
47522;BME280;32291;52.010;4.446;2023-05-07T02:51:22;78223.31;;;-144.67;100.00
47522;BME280;32291;52.010;4.446;2023-05-07T02:52:23;78223.31;;;-144.67;100.00
47522;BME280;32291;52.010;4.446;2023-05-07T02:53:26;78219.03;;;-144.67;100.00
47522;BME280;32291;52.010;4.446;2023-05-07T02:54:28;78214.75;;;-144.67;100.00
47522;BME280;32291;52.010;4.446;2023-05-07T02:55:30;78219.03;;;-144.67;100.00
47522;BME280;32291;52.010;4.446;2023-05-07T02:56:31;78219.03;;;-144.67;100.00
47522;BME280;32291;52.010;4.446;2023-05-07T02:57:33;78219.03;;;-144.67;100.00
47522;BME280;32291;52.010;4.446;2023-05-07T02:58:36;78223.31;;;-144.67;100.00
47522;BME280;32291;52.010;4.446;2023-05-07T02:59:37;78219.03;;;-144.67;100.00
47522;BME280;32291;52.010;4.446;2023-05-07T03:00:39;78208.31;;;-144.67;100.00
47522;BME280;32291;52.010;4.446;2023-05-07T03:01:41;78201.91;;;-144.67;100.00
47522;BME280;32291;52.010;4.446;2023-05-07T03:02:45;78214.75;;;-144.67;100.00
47522;BME280;32291;52.010;4.446;2023-05-07T03:03:47;78212.59;;;-144.67;100.00
47522;BME280;32291;52.010;4.446;2023-05-07T03:04:49;78210.47;;;-144.67;100.00
47522;BME280;32291;52.010;4.446;2023-05-07T03:05:51;78210.47;;;-144.67;100.00
47522;BME280;32291;52.010;4.446;2023-05-07T03:06:53;78210.47;;;-144.67;100.00
47522;BME280;32291;52.010;4.446;2023-05-07T03:07:54;78210.47;;;-144.67;100.00
47522;BME280;32291;52.010;4.446;2023-05-07T03:08:56;78208.31;;;-144.67;100.00
47522;BME280;32291;52.010;4.446;2023-05-07T03:09:57;78206.19;;;-144.67;100.00
47522;BME280;32291;52.010;4.446;2023-05-07T03:10:59;78201.91;;;-144.67;100.00
47522;BME280;32291;52.010;4.446;2023-05-07T03:12:01;78197.59;;;-144.67;100.00
47522;BME280;32291;52.010;4.446;2023-05-07T03:13:04;78208.31;;;-144.67;100.00
47522;BME280;32291;52.010;4.446;2023-05-07T03:14:06;78206.19;;;-144.67;100.00
47522;BME280;32291;52.010;4.446;2023-05-07T03:15:09;78212.59;;;-144.67;100.00
47522;BME280;32291;52.010;4.446;2023-05-07T03:16:11;78206.19;;;-144.67;100.00
47522;BME280;32291;52.010;4.446;2023-05-07T03:17:13;78206.19;;;-144.67;100.00
47522;BME280;32291;52.010;4.446;2023-05-07T03:18:14;78201.91;;;-144.67;100.00
47522;BME280;32291;52.010;4.446;2023-05-07T03:19:16;78199.75;;;-144.67;100.00
47522;BME280;32291;52.010;4.446;2023-05-07T03:20:18;78197.59;;;-144.67;100.00
47522;BME280;32291;52.010;4.446;2023-05-07T03:21:20;78204.03;;;-144.67;100.00
47522;BME280;32291;52.010;4.446;2023-05-07T03:22:21;78206.19;;;-144.67;100.00
47522;BME280;32291;52.010;4.446;2023-05-07T03:23:23;78199.75;;;-144.67;100.00
47522;BME280;32291;52.010;4.446;2023-05-07T03:24:25;78197.59;;;-144.67;100.00
47522;BME280;32291;52.010;4.446;2023-05-07T03:25:28;78189.03;;;-144.67;100.00
47522;BME280;32291;52.010;4.446;2023-05-07T03:26:31;78195.47;;;-144.67;100.00
47522;BME280;32291;52.010;4.446;2023-05-07T03:27:33;78193.31;;;-144.67;100.00
47522;BME280;32291;52.010;4.446;2023-05-07T03:28:35;78193.31;;;-144.67;100.00
47522;BME280;32291;52.010;4.446;2023-05-07T03:29:37;78186.91;;;-144.67;100.00
47522;BME280;32291;52.010;4.446;2023-05-07T03:30:38;78189.03;;;-144.67;100.00
47522;BME280;32291;52.010;4.446;2023-05-07T03:31:40;78189.03;;;-144.67;100.00
47522;BME280;32291;52.010;4.446;2023-05-07T03:32:43;78189.03;;;-144.67;100.00
47522;BME280;32291;52.010;4.446;2023-05-07T03:33:56;78186.91;;;-144.67;100.00
47522;BME280;32291;52.010;4.446;2023-05-07T03:34:57;78184.75;;;-144.67;100.00
47522;BME280;32291;52.010;4.446;2023-05-07T03:35:59;78184.75;;;-144.67;100.00
47522;BME280;32291;52.010;4.446;2023-05-07T03:37:00;78184.75;;;-144.67;100.00
47522;BME280;32291;52.010;4.446;2023-05-07T03:38:02;78180.47;;;-144.67;100.00
47522;BME280;32291;52.010;4.446;2023-05-07T03:39:04;78176.19;;;-144.67;100.00
47522;BME280;32291;52.010;4.446;2023-05-07T03:40:07;78180.47;;;-144.67;100.00
47522;BME280;32291;52.010;4.446;2023-05-07T03:41:09;78184.75;;;-144.67;100.00
47522;BME280;32291;52.010;4.446;2023-05-07T03:42:11;78180.47;;;-144.67;100.00
47522;BME280;32291;52.010;4.446;2023-05-07T03:43:13;78189.03;;;-144.67;100.00
47522;BME280;32291;52.010;4.446;2023-05-07T03:44:14;78184.75;;;-144.67;100.00
47522;BME280;32291;52.010;4.446;2023-05-07T03:45:16;78180.47;;;-144.67;100.00
47522;BME280;32291;52.010;4.446;2023-05-07T03:46:17;78171.91;;;-144.67;100.00
47522;BME280;32291;52.010;4.446;2023-05-07T03:47:19;78169.78;;;-144.67;100.00
47522;BME280;32291;52.010;4.446;2023-05-07T03:48:21;78176.19;;;-144.67;100.00
47522;BME280;32291;52.010;4.446;2023-05-07T03:49:22;78165.50;;;-144.67;100.00
47522;BME280;32291;52.010;4.446;2023-05-07T03:50:24;78174.06;;;-144.67;100.00
47522;BME280;32291;52.010;4.446;2023-05-07T03:51:26;78176.19;;;-144.67;100.00
47522;BME280;32291;52.010;4.446;2023-05-07T03:52:28;78176.19;;;-144.67;100.00
47522;BME280;32291;52.010;4.446;2023-05-07T03:53:30;78184.75;;;-144.67;100.00
47522;BME280;32291;52.010;4.446;2023-05-07T03:54:32;78180.47;;;-144.67;100.00
47522;BME280;32291;52.010;4.446;2023-05-07T03:55:34;78184.75;;;-144.67;100.00
47522;BME280;32291;52.010;4.446;2023-05-07T03:56:37;78176.19;;;-144.67;100.00
47522;BME280;32291;52.010;4.446;2023-05-07T03:57:41;78176.19;;;-144.67;100.00
47522;BME280;32291;52.010;4.446;2023-05-07T03:58:43;78180.47;;;-144.67;100.00
47522;BME280;32291;52.010;4.446;2023-05-07T03:59:44;78180.47;;;-144.67;100.00
47522;BME280;32291;52.010;4.446;2023-05-07T04:00:46;78189.03;;;-144.67;100.00
47522;BME280;32291;52.010;4.446;2023-05-07T04:01:48;78184.75;;;-144.67;100.00
47522;BME280;32291;52.010;4.446;2023-05-07T04:02:53;78180.47;;;-144.67;100.00
47522;BME280;32291;52.010;4.446;2023-05-07T04:03:55;78189.03;;;-144.67;100.00
47522;BME280;32291;52.010;4.446;2023-05-07T04:04:56;78193.31;;;-144.67;100.00
47522;BME280;32291;52.010;4.446;2023-05-07T04:05:58;78189.03;;;-144.67;100.00
47522;BME280;32291;52.010;4.446;2023-05-07T04:06:59;78186.91;;;-144.67;100.00
47522;BME280;32291;52.010;4.446;2023-05-07T04:08:01;78193.31;;;-144.67;100.00
47522;BME280;32291;52.010;4.446;2023-05-07T04:09:04;78184.75;;;-144.67;100.00
47522;BME280;32291;52.010;4.446;2023-05-07T04:10:06;78184.75;;;-144.67;100.00
47522;BME280;32291;52.010;4.446;2023-05-07T04:11:08;78186.91;;;-144.67;100.00
47522;BME280;32291;52.010;4.446;2023-05-07T04:12:10;78182.63;;;-144.67;100.00
47522;BME280;32291;52.010;4.446;2023-05-07T04:13:12;78176.19;;;-144.67;100.00
47522;BME280;32291;52.010;4.446;2023-05-07T04:14:13;78186.91;;;-144.67;100.00
47522;BME280;32291;52.010;4.446;2023-05-07T04:15:16;78184.75;;;-144.67;100.00
47522;BME280;32291;52.010;4.446;2023-05-07T04:16:17;78178.34;;;-144.67;100.00
47522;BME280;32291;52.010;4.446;2023-05-07T04:17:19;78174.06;;;-144.67;100.00
47522;BME280;32291;52.010;4.446;2023-05-07T04:18:20;78180.47;;;-144.67;100.00
47522;BME280;32291;52.010;4.446;2023-05-07T04:19:22;78180.47;;;-144.67;100.00
47522;BME280;32291;52.010;4.446;2023-05-07T04:20:24;78178.34;;;-144.67;100.00
47522;BME280;32291;52.010;4.446;2023-05-07T04:21:26;78176.19;;;-144.67;100.00
47522;BME280;32291;52.010;4.446;2023-05-07T04:22:27;78176.19;;;-144.67;100.00
47522;BME280;32291;52.010;4.446;2023-05-07T04:23:29;78176.19;;;-144.67;100.00
47522;BME280;32291;52.010;4.446;2023-05-07T04:24:33;78178.34;;;-144.67;100.00
47522;BME280;32291;52.010;4.446;2023-05-07T04:25:35;78171.91;;;-144.67;100.00
47522;BME280;32291;52.010;4.446;2023-05-07T04:26:37;78167.63;;;-144.67;100.00
47522;BME280;32291;52.010;4.446;2023-05-07T04:27:39;78174.06;;;-144.67;100.00
47522;BME280;32291;52.010;4.446;2023-05-07T04:28:41;78167.63;;;-144.67;100.00
47522;BME280;32291;52.010;4.446;2023-05-07T04:29:43;78161.22;;;-144.67;100.00
47522;BME280;32291;52.010;4.446;2023-05-07T04:30:49;78159.06;;;-144.67;100.00
47522;BME280;32291;52.010;4.446;2023-05-07T04:31:51;78150.50;;;-144.67;100.00
47522;BME280;32291;52.010;4.446;2023-05-07T04:32:53;78156.94;;;-144.67;100.00
47522;BME280;32291;52.010;4.446;2023-05-07T04:33:55;78156.94;;;-144.67;100.00
47522;BME280;32291;52.010;4.446;2023-05-07T04:34:57;78163.34;;;-144.67;100.00
47522;BME280;32291;52.010;4.446;2023-05-07T04:36:02;78156.94;;;-144.67;100.00
47522;BME280;32291;52.010;4.446;2023-05-07T04:37:04;78159.06;;;-144.67;100.00
47522;BME280;32291;52.010;4.446;2023-05-07T04:38:05;78163.34;;;-144.67;100.00
47522;BME280;32291;52.010;4.446;2023-05-07T04:39:07;78163.34;;;-144.67;100.00
47522;BME280;32291;52.010;4.446;2023-05-07T04:40:09;78154.78;;;-144.67;100.00
47522;BME280;32291;52.010;4.446;2023-05-07T04:41:13;78141.94;;;-144.67;100.00
47522;BME280;32291;52.010;4.446;2023-05-07T04:42:18;78146.22;;;-144.67;100.00
47522;BME280;32291;52.010;4.446;2023-05-07T04:43:20;78152.66;;;-144.67;100.00
47522;BME280;32291;52.010;4.446;2023-05-07T04:44:22;78154.78;;;-144.67;100.00
47522;BME280;32291;52.010;4.446;2023-05-07T04:45:23;78154.78;;;-144.67;100.00
47522;BME280;32291;52.010;4.446;2023-05-07T04:46:25;78148.38;;;-144.67;100.00
47522;BME280;32291;52.010;4.446;2023-05-07T04:47:26;78154.78;;;-144.67;100.00
47522;BME280;32291;52.010;4.446;2023-05-07T04:48:28;78150.50;;;-144.67;100.00
47522;BME280;32291;52.010;4.446;2023-05-07T04:49:30;78144.09;;;-144.67;100.00
47522;BME280;32291;52.010;4.446;2023-05-07T04:50:32;78150.50;;;-144.67;100.00
47522;BME280;32291;52.010;4.446;2023-05-07T04:51:34;78152.66;;;-144.67;100.00
47522;BME280;32291;52.010;4.446;2023-05-07T04:52:36;78150.50;;;-144.67;100.00
47522;BME280;32291;52.010;4.446;2023-05-07T04:53:38;78148.38;;;-144.67;100.00
47522;BME280;32291;52.010;4.446;2023-05-07T04:54:39;78150.50;;;-144.67;100.00
47522;BME280;32291;52.010;4.446;2023-05-07T04:55:41;78150.50;;;-144.67;100.00
47522;BME280;32291;52.010;4.446;2023-05-07T04:56:42;78141.94;;;-144.67;100.00
47522;BME280;32291;52.010;4.446;2023-05-07T04:57:44;78146.22;;;-144.67;100.00
47522;BME280;32291;52.010;4.446;2023-05-07T04:58:46;78137.66;;;-144.67;100.00
47522;BME280;32291;52.010;4.446;2023-05-07T04:59:48;78141.94;;;-144.67;100.00
47522;BME280;32291;52.010;4.446;2023-05-07T05:00:50;78139.81;;;-144.67;100.00
47522;BME280;32291;52.010;4.446;2023-05-07T05:01:52;78139.81;;;-144.67;100.00
47522;BME280;32291;52.010;4.446;2023-05-07T05:02:53;78141.94;;;-144.67;100.00
47522;BME280;32291;52.010;4.446;2023-05-07T05:03:55;78133.38;;;-144.67;100.00
47522;BME280;32291;52.010;4.446;2023-05-07T05:04:56;78129.09;;;-144.67;100.00
47522;BME280;32291;52.010;4.446;2023-05-07T05:05:58;78129.09;;;-144.67;100.00
47522;BME280;32291;52.010;4.446;2023-05-07T05:07:01;78122.69;;;-144.67;100.00
47522;BME280;32291;52.010;4.446;2023-05-07T05:08:02;78124.81;;;-144.67;100.00
47522;BME280;32291;52.010;4.446;2023-05-07T05:09:04;78122.69;;;-144.67;100.00
47522;BME280;32291;52.010;4.446;2023-05-07T05:10:06;78114.13;;;-144.67;100.00
47522;BME280;32291;52.010;4.446;2023-05-07T05:11:08;78111.97;;;-144.67;100.00
47522;BME280;32291;52.010;4.446;2023-05-07T05:12:09;78118.41;;;-144.67;100.00
47522;BME280;32291;52.010;4.446;2023-05-07T05:13:11;78107.69;;;-144.67;100.00
47522;BME280;32291;52.010;4.446;2023-05-07T05:14:13;78107.69;;;-144.67;100.00
47522;BME280;32291;52.010;4.446;2023-05-07T05:15:15;78105.56;;;-144.67;100.00
47522;BME280;32291;52.010;4.446;2023-05-07T05:16:17;78099.13;;;-144.67;100.00
47522;BME280;32291;52.010;4.446;2023-05-07T05:17:19;78097.00;;;-144.67;100.00